Time;durP1;ratioP1;P1;durP2;ratioP2;P2;SDS_P1;SDS_P2;PMS_P1;PMS_P2;Temp;Humidity;BMP_temperature;BMP_pressure;BME280_temperature;BME280_humidity;BME280_pressure;Samples;Min_cycle;Max_cycle;Signal;HPM_P1;HPM_P2
2021/12/30 00:00:24;;;;;;;33.70;7.00;;;7.40;99.90;;;;;;5090780;28;20044;-80
2021/12/30 00:02:50;;;;;;;39.97;6.22;;;7.40;99.90;;;;;;5091257;28;20048;-81
2021/12/30 00:05:16;;;;;;;39.92;7.28;;;7.40;99.90;;;;;;5076938;28;20112;-81
2021/12/30 00:07:43;;;;;;;38.28;6.88;;;7.40;99.90;;;;;;5085420;28;20052;-80
2021/12/30 00:10:09;;;;;;;36.17;6.57;;;7.30;99.90;;;;;;5059931;28;20046;-81
2021/12/30 00:12:35;;;;;;;41.17;6.75;;;7.30;99.90;;;;;;5109437;28;20054;-80
2021/12/30 00:15:05;;;;;;;40.75;7.72;;;7.30;99.90;;;;;;5093626;28;20040;-82
2021/12/30 00:17:31;;;;;;;44.72;7.82;;;7.30;99.90;;;;;;5075394;28;20100;-82
2021/12/30 00:19:56;;;;;;;33.40;6.57;;;7.30;99.90;;;;;;5076458;28;20039;-80
2021/12/30 00:22:23;;;;;;;35.25;6.70;;;7.30;99.90;;;;;;5075811;28;20055;-80
2021/12/30 00:24:49;;;;;;;48.20;8.43;;;7.30;99.90;;;;;;5075052;28;20079;-81
2021/12/30 00:27:15;;;;;;;45.75;7.93;;;7.30;99.90;;;;;;5061130;28;20086;-81
2021/12/30 00:29:40;;;;;;;35.05;6.55;;;7.40;99.90;;;;;;5062440;28;20051;-82
2021/12/30 00:32:06;;;;;;;34.83;6.85;;;7.40;99.90;;;;;;5056801;28;20125;-80
2021/12/30 00:34:32;;;;;;;37.00;7.03;;;7.50;99.90;;;;;;5057283;28;20047;-80
2021/12/30 00:36:58;;;;;;;40.17;7.25;;;7.50;99.90;;;;;;5077292;28;20047;-80
2021/12/30 00:39:24;;;;;;;32.25;6.50;;;7.50;99.90;;;;;;5059670;28;20118;-80
2021/12/30 00:41:49;;;;;;;37.17;6.45;;;7.90;99.90;;;;;;5075729;28;20047;-80
2021/12/30 00:44:15;;;;;;;35.50;6.05;;;7.60;99.90;;;;;;5075977;28;20048;-81
2021/12/30 00:46:41;;;;;;;34.92;6.65;;;7.40;99.90;;;;;;5061885;28;20040;-81
2021/12/30 00:49:07;;;;;;;37.72;6.55;;;7.40;99.90;;;;;;5076470;28;20040;-81
2021/12/30 00:51:32;;;;;;;36.55;6.38;;;7.40;99.90;;;;;;5074987;28;20054;-80
2021/12/30 00:53:58;;;;;;;36.10;7.00;;;7.50;99.90;;;;;;5090555;28;20089;-80
2021/12/30 00:56:24;;;;;;;38.72;7.93;;;7.40;99.90;;;;;;5059217;28;20051;-81
2021/12/30 00:58:52;;;;;;;36.33;6.97;;;7.40;99.90;;;;;;5061235;28;20036;-81
2021/12/30 01:01:18;;;;;;;35.38;6.43;;;7.40;99.90;;;;;;5061177;28;20083;-81
2021/12/30 01:03:43;;;;;;;37.65;6.43;;;7.40;99.90;;;;;;5071178;28;20051;-80
2021/12/30 01:06:09;;;;;;;33.72;5.75;;;7.40;99.90;;;;;;5060599;28;20060;-81
2021/12/30 01:08:35;;;;;;;33.58;6.78;;;7.40;99.90;;;;;;5092147;28;20104;-79
2021/12/30 01:11:05;;;;;;;29.40;5.53;;;7.40;99.90;;;;;;5075925;28;20086;-80
2021/12/30 01:13:32;;;;;;;29.13;6.60;;;7.40;99.90;;;;;;5075977;28;20055;-82
2021/12/30 01:16:03;;;;;;;36.88;6.22;;;7.40;99.90;;;;;;5088888;28;20075;-82
2021/12/30 01:18:43;;;;;;;31.80;5.65;;;7.40;99.90;;;;;;5074148;28;20046;-79
2021/12/30 01:21:12;;;;;;;33.90;6.68;;;7.40;99.90;;;;;;5089223;28;20040;-80
2021/12/30 01:23:41;;;;;;;37.03;6.05;;;7.60;99.90;;;;;;5086673;28;20119;-81
2021/12/30 01:26:08;;;;;;;33.33;5.72;;;7.40;99.90;;;;;;5072835;28;20043;-81
2021/12/30 01:28:34;;;;;;;29.77;5.10;;;7.40;99.90;;;;;;5103386;28;20412;-80
2021/12/30 01:31:01;;;;;;;31.40;5.55;;;7.40;99.90;;;;;;5072681;28;20039;-81
2021/12/30 01:33:28;;;;;;;33.08;5.18;;;7.40;99.90;;;;;;5089204;28;20052;-81
2021/12/30 01:35:53;;;;;;;29.42;5.80;;;7.30;99.90;;;;;;5057333;28;20421;-81
2021/12/30 01:38:19;;;;;;;33.20;6.15;;;7.30;99.90;;;;;;5056285;28;20050;-81
2021/12/30 01:40:48;;;;;;;32.92;5.85;;;7.30;99.90;;;;;;5073129;28;20043;-80
2021/12/30 01:43:15;;;;;;;32.95;5.32;;;7.30;99.90;;;;;;5071771;28;20446;-80
2021/12/30 01:45:42;;;;;;;33.13;5.82;;;7.30;99.90;;;;;;5070821;28;20054;-81
2021/12/30 01:48:09;;;;;;;30.38;5.68;;;7.30;99.90;;;;;;5072963;28;20134;-81
2021/12/30 01:50:35;;;;;;;34.15;6.75;;;7.50;99.90;;;;;;5087970;28;20404;-80
2021/12/30 01:53:03;;;;;;;34.10;6.80;;;7.40;99.90;;;;;;5071057;28;20051;-82
2021/12/30 01:55:31;;;;;;;36.28;6.50;;;7.50;99.90;;;;;;5074461;28;20051;-81
2021/12/30 01:57:56;;;;;;;34.40;5.72;;;7.50;99.90;;;;;;5057378;28;20047;-81
2021/12/30 02:00:26;;;;;;;33.15;6.18;;;7.60;99.90;;;;;;5056747;28;20592;-81
2021/12/30 02:02:52;;;;;;;33.17;5.57;;;7.60;99.90;;;;;;5085878;28;20127;-81
2021/12/30 02:05:18;;;;;;;33.67;5.63;;;7.60;99.90;;;;;;5063044;28;20147;-81
2021/12/30 02:07:44;;;;;;;35.40;6.40;;;7.50;99.90;;;;;;5090198;28;20059;-80
2021/12/30 02:10:12;;;;;;;35.20;6.22;;;7.60;99.90;;;;;;5073718;28;20477;-81
2021/12/30 02:12:39;;;;;;;37.75;6.22;;;7.60;99.90;;;;;;5054914;28;20096;-82
2021/12/30 02:15:08;;;;;;;45.47;6.38;;;8.10;99.90;;;;;;5069917;28;20060;-80
2021/12/30 02:17:34;;;;;;;44.65;8.40;;;7.70;99.90;;;;;;5088374;28;20048;-81
2021/12/30 02:20:03;;;;;;;43.15;7.32;;;7.70;99.90;;;;;;5089238;28;20046;-78
2021/12/30 02:22:28;;;;;;;40.92;6.40;;;7.70;99.90;;;;;;5070766;28;20386;-81
2021/12/30 02:24:56;;;;;;;41.30;6.88;;;7.80;99.90;;;;;;5057066;28;20028;-79
2021/12/30 02:27:22;;;;;;;43.97;7.22;;;7.70;99.90;;;;;;5087949;28;20112;-81
2021/12/30 02:29:47;;;;;;;39.28;7.20;;;7.70;99.90;;;;;;5073444;28;20056;-82
2021/12/30 02:32:13;;;;;;;38.92;7.45;;;7.60;99.90;;;;;;5071356;28;20052;-82
2021/12/30 02:34:39;;;;;;;36.33;7.00;;;7.60;99.90;;;;;;5086080;28;20055;-81
2021/12/30 02:37:06;;;;;;;41.75;7.00;;;7.60;99.90;;;;;;5055856;28;20183;-82
2021/12/30 02:39:33;;;;;;;48.78;7.75;;;7.60;99.90;;;;;;5070840;28;20036;-81
2021/12/30 02:41:59;;;;;;;57.40;8.20;;;7.60;99.90;;;;;;5072644;28;20044;-81
2021/12/30 02:44:25;;;;;;;44.33;7.82;;;7.60;99.90;;;;;;5071820;28;20093;-82
2021/12/30 02:46:53;;;;;;;46.33;7.50;;;7.60;99.90;;;;;;5073600;28;20047;-80
2021/12/30 02:49:20;;;;;;;43.10;6.82;;;7.70;99.90;;;;;;5073602;28;20073;-80
2021/12/30 02:51:46;;;;;;;39.35;6.93;;;7.00;99.90;;;;;;5072402;28;20488;-81
2021/12/30 02:54:12;;;;;;;47.53;7.43;;;7.70;99.90;;;;;;5086683;28;20054;-81
2021/12/30 02:56:38;;;;;;;45.50;7.35;;;7.80;99.90;;;;;;5055816;28;20044;-81
2021/12/30 02:59:04;;;;;;;47.67;7.50;;;7.80;99.90;;;;;;5052467;28;20048;-81
2021/12/30 03:01:32;;;;;;;42.17;7.75;;;7.90;99.90;;;;;;5071273;28;20048;-80
2021/12/30 03:04:01;;;;;;;48.45;7.45;;;7.90;99.90;;;;;;5070490;28;20051;-81
2021/12/30 03:06:27;;;;;;;33.47;6.93;;;8.00;99.90;;;;;;5084318;28;20075;-82
2021/12/30 03:08:56;;;;;;;47.08;7.72;;;8.00;99.90;;;;;;5064998;28;20135;-81
2021/12/30 03:11:24;;;;;;;44.63;6.80;;;8.10;99.90;;;;;;5071524;28;20124;-80
2021/12/30 03:13:50;;;;;;;36.42;6.57;;;8.10;99.90;;;;;;5080740;28;20054;-80
2021/12/30 03:16:19;;;;;;;43.72;7.20;;;8.10;99.90;;;;;;5087955;28;20526;-82
2021/12/30 03:18:48;;;;;;;46.80;7.25;;;8.10;99.90;;;;;;5070815;28;20126;-82
2021/12/30 03:21:18;;;;;;;43.58;7.60;;;8.10;99.90;;;;;;5071876;28;20151;-80
2021/12/30 03:23:45;;;;;;;40.60;7.13;;;8.10;99.90;;;;;;5084117;28;20460;-80
2021/12/30 03:26:11;;;;;;;36.90;6.32;;;8.10;99.90;;;;;;5057668;28;20096;-80
2021/12/30 03:28:40;;;;;;;36.88;6.47;;;8.10;99.90;;;;;;5087613;28;20040;-80
2021/12/30 03:31:06;;;;;;;44.50;7.43;;;8.10;99.90;;;;;;5067342;28;20130;-81
2021/12/30 03:33:33;;;;;;;46.30;6.93;;;8.10;99.90;;;;;;5070005;28;20143;-81
2021/12/30 03:36:00;;;;;;;38.60;6.97;;;8.20;99.90;;;;;;5071444;28;20079;-81
2021/12/30 03:38:32;;;;;;;37.38;6.63;;;8.10;99.90;;;;;;5054714;28;20043;-82
2021/12/30 03:40:59;;;;;;;40.47;7.22;;;8.10;99.90;;;;;;5069635;28;20047;-81
2021/12/30 03:43:25;;;;;;;38.72;6.70;;;8.20;99.90;;;;;;5072391;28;20044;-80
2021/12/30 03:45:50;;;;;;;43.53;8.00;;;8.20;99.90;;;;;;5071510;28;20058;-80
2021/12/30 03:48:16;;;;;;;49.05;7.40;;;8.30;99.90;;;;;;5103520;28;20047;-81
2021/12/30 03:50:44;;;;;;;39.65;7.30;;;8.30;99.90;;;;;;5069039;28;20101;-81
2021/12/30 03:53:12;;;;;;;41.80;7.28;;;8.30;99.90;;;;;;5071667;28;20499;-81
2021/12/30 03:55:38;;;;;;;41.03;6.80;;;8.30;99.90;;;;;;5065977;28;20047;-80
2021/12/30 03:58:04;;;;;;;48.67;9.32;;;8.40;99.90;;;;;;5070694;28;20050;-80
2021/12/30 04:00:31;;;;;;;42.50;7.82;;;8.50;99.90;;;;;;5072881;28;20040;-82
2021/12/30 04:02:57;;;;;;;46.90;8.82;;;8.50;99.90;;;;;;5083930;28;20069;-81
2021/12/30 04:05:24;;;;;;;44.25;8.25;;;8.50;99.90;;;;;;5052312;28;20063;-81
2021/12/30 04:07:50;;;;;;;40.60;6.78;;;9.00;99.90;;;;;;5070838;28;20050;-81
2021/12/30 04:10:21;;;;;;;45.03;8.05;;;8.50;99.90;;;;;;5056235;28;20071;-80
2021/12/30 04:12:47;;;;;;;43.28;8.02;;;8.50;99.90;;;;;;5068306;28;20115;-81
2021/12/30 04:15:13;;;;;;;49.35;8.35;;;8.50;99.90;;;;;;5066280;28;20044;-80
2021/12/30 04:17:39;;;;;;;54.72;8.48;;;8.60;99.90;;;;;;5053953;28;20055;-81
2021/12/30 04:20:08;;;;;;;50.03;9.82;;;8.60;99.90;;;;;;5086367;28;20039;-81
2021/12/30 04:22:38;;;;;;;54.78;8.35;;;8.70;99.90;;;;;;5083153;28;20859;-81
2021/12/30 04:25:06;;;;;;;57.47;9.43;;;8.80;99.90;;;;;;5064543;28;20060;-80
2021/12/30 04:27:32;;;;;;;47.55;9.38;;;8.90;99.90;;;;;;5069670;28;20059;-81
2021/12/30 04:29:58;;;;;;;48.45;9.55;;;9.00;99.90;;;;;;5083917;28;20378;-81
2021/12/30 04:32:24;;;;;;;63.92;9.73;;;9.10;99.90;;;;;;5069129;28;20054;-81
2021/12/30 04:34:50;;;;;;;55.38;9.57;;;9.10;99.90;;;;;;5069579;28;20071;-80
2021/12/30 04:37:16;;;;;;;63.30;10.13;;;9.20;99.90;;;;;;5068644;28;20054;-81
2021/12/30 04:39:42;;;;;;;49.95;8.95;;;9.20;99.90;;;;;;5067035;28;20043;-81
2021/12/30 04:42:08;;;;;;;52.10;8.70;;;9.20;99.90;;;;;;5070021;28;20059;-81
2021/12/30 04:44:33;;;;;;;57.60;8.98;;;9.30;99.90;;;;;;5052026;28;20454;-82
2021/12/30 04:46:59;;;;;;;52.08;9.18;;;9.30;99.90;;;;;;5055571;28;20071;-81
2021/12/30 04:49:26;;;;;;;50.97;8.63;;;9.40;99.90;;;;;;5073885;28;20496;-81
2021/12/30 04:51:52;;;;;;;50.63;8.85;;;9.40;99.90;;;;;;5072202;28;20047;-81
2021/12/30 04:54:18;;;;;;;42.92;8.48;;;9.70;99.90;;;;;;5074351;28;20055;-81
2021/12/30 04:56:45;;;;;;;39.92;7.70;;;9.40;99.90;;;;;;5070940;28;20502;-81
2021/12/30 04:59:11;;;;;;;44.47;8.90;;;9.40;99.90;;;;;;5088963;28;20388;-81
2021/12/30 05:01:38;;;;;;;53.25;8.60;;;9.40;99.90;;;;;;5103401;28;20433;-81
2021/12/30 05:04:05;;;;;;;55.20;8.80;;;9.40;99.90;;;;;;5071586;28;20060;-81
2021/12/30 05:06:32;;;;;;;51.63;8.48;;;9.40;99.90;;;;;;5083943;28;20043;-81
2021/12/30 05:08:59;;;;;;;42.67;9.27;;;9.40;99.90;;;;;;5067366;28;20047;-81
2021/12/30 05:11:25;;;;;;;42.70;9.07;;;9.40;99.90;;;;;;5085990;28;20053;-81
2021/12/30 05:13:50;;;;;;;50.58;9.30;;;9.40;99.90;;;;;;5105131;28;20043;-81
2021/12/30 05:16:18;;;;;;;47.97;9.13;;;9.40;99.90;;;;;;5058211;28;20083;-80
2021/12/30 05:18:44;;;;;;;46.90;10.52;;;9.40;99.90;;;;;;5070639;28;20048;-81
2021/12/30 05:21:10;;;;;;;47.88;9.88;;;9.50;99.90;;;;;;5072195;28;20055;-80
2021/12/30 05:23:36;;;;;;;47.25;10.23;;;9.50;99.90;;;;;;5056826;28;20473;-80
2021/12/30 05:26:02;;;;;;;48.70;9.85;;;9.50;99.90;;;;;;5071513;28;20067;-80
2021/12/30 05:28:28;;;;;;;45.60;8.98;;;9.40;99.90;;;;;;5073254;28;20510;-79
2021/12/30 05:30:55;;;;;;;45.28;10.23;;;9.40;99.90;;;;;;5056641;28;20290;-79
2021/12/30 05:33:21;;;;;;;50.75;11.27;;;9.40;99.90;;;;;;5071653;28;20044;-80
2021/12/30 05:35:46;;;;;;;48.38;10.15;;;9.30;99.90;;;;;;5086281;28;20043;-79
2021/12/30 05:38:15;;;;;;;52.75;12.68;;;9.30;99.90;;;;;;5085884;28;20039;-80
2021/12/30 05:40:41;;;;;;;41.05;10.18;;;9.30;99.90;;;;;;5055721;28;20555;-80
2021/12/30 05:43:06;;;;;;;48.25;9.55;;;9.30;99.90;;;;;;5054081;28;20040;-79
2021/12/30 05:45:32;;;;;;;36.25;8.48;;;9.30;99.90;;;;;;5055325;28;20042;-79
2021/12/30 05:47:58;;;;;;;46.13;10.63;;;9.20;99.90;;;;;;5086166;28;20196;-79
2021/12/30 05:50:27;;;;;;;38.78;10.43;;;9.20;99.90;;;;;;5084204;28;20035;-80
2021/12/30 05:52:53;;;;;;;44.13;10.68;;;9.20;99.90;;;;;;5070439;28;20048;-79
2021/12/30 05:55:19;;;;;;;43.03;10.13;;;9.20;99.90;;;;;;5064455;28;20509;-79
2021/12/30 05:57:46;;;;;;;36.42;10.30;;;9.20;99.90;;;;;;5055757;28;20048;-80
2021/12/30 06:00:15;;;;;;;34.55;9.32;;;9.20;99.90;;;;;;5055991;28;20067;-80
2021/12/30 06:02:41;;;;;;;34.17;10.15;;;9.20;99.90;;;;;;5068415;28;20062;-79
2021/12/30 06:05:07;;;;;;;39.15;10.77;;;9.20;99.90;;;;;;5071619;28;20485;-80
2021/12/30 06:07:33;;;;;;;30.50;9.98;;;9.20;99.90;;;;;;5086494;28;20039;-80
2021/12/30 06:09:59;;;;;;;37.25;10.80;;;9.20;99.90;;;;;;5055379;28;20043;-80
2021/12/30 06:12:25;;;;;;;41.33;10.55;;;9.20;99.90;;;;;;5071107;28;20404;-80
2021/12/30 06:14:51;;;;;;;40.85;11.00;;;9.10;99.90;;;;;;5066025;28;20056;-79
2021/12/30 06:17:16;;;;;;;33.08;10.60;;;9.10;99.90;;;;;;5085980;28;20050;-79
2021/12/30 06:19:43;;;;;;;25.45;8.85;;;9.10;99.90;;;;;;5071863;28;20401;-80
2021/12/30 06:22:10;;;;;;;28.50;8.48;;;9.20;99.90;;;;;;5063469;28;20485;-80
2021/12/30 06:24:36;;;;;;;32.58;9.32;;;9.10;99.90;;;;;;5084602;28;20079;-80
2021/12/30 06:27:01;;;;;;;32.40;9.48;;;9.10;99.90;;;;;;5063635;28;20515;-79
2021/12/30 06:29:27;;;;;;;26.02;8.32;;;9.10;99.90;;;;;;5104128;28;20055;-79
2021/12/30 06:31:53;;;;;;;27.67;9.05;;;9.10;99.90;;;;;;5067567;28;20082;-80
2021/12/30 06:34:19;;;;;;;33.05;8.55;;;9.10;99.90;;;;;;5087211;28;20051;-80
2021/12/30 06:36:44;;;;;;;36.08;8.55;;;9.10;99.90;;;;;;5068222;28;20047;-80
2021/12/30 06:39:10;;;;;;;23.42;7.45;;;9.10;99.90;;;;;;5069458;28;20046;-80
2021/12/30 06:41:36;;;;;;;28.02;7.32;;;9.10;99.90;;;;;;5063358;28;20044;-80
2021/12/30 06:44:02;;;;;;;32.85;6.95;;;9.00;99.90;;;;;;5052374;28;20043;-80
2021/12/30 06:46:28;;;;;;;32.70;7.47;;;9.00;99.90;;;;;;5071830;28;20050;-79
2021/12/30 06:48:54;;;;;;;36.97;6.38;;;9.10;99.90;;;;;;5105412;28;20146;-80
2021/12/30 06:51:23;;;;;;;26.98;6.25;;;9.20;99.90;;;;;;5070918;28;20118;-79
2021/12/30 06:53:51;;;;;;;24.52;6.15;;;9.10;99.90;;;;;;5054854;28;20079;-80
2021/12/30 06:56:19;;;;;;;22.38;6.38;;;9.10;99.90;;;;;;5067444;28;20078;-79
2021/12/30 06:58:44;;;;;;;20.60;5.97;;;9.10;99.90;;;;;;5053851;28;20116;-79
2021/12/30 07:01:10;;;;;;;22.00;6.13;;;9.10;99.90;;;;;;5065542;28;20051;-79
2021/12/30 07:03:36;;;;;;;20.92;5.90;;;9.10;99.90;;;;;;5067673;28;20139;-79
2021/12/30 07:06:02;;;;;;;26.67;5.93;;;9.10;99.90;;;;;;5070619;28;20275;-79
2021/12/30 07:08:28;;;;;;;26.75;5.80;;;9.10;99.90;;;;;;5087895;28;20047;-78
2021/12/30 07:10:53;;;;;;;20.95;6.05;;;9.10;99.90;;;;;;5070160;28;20047;-77
2021/12/30 07:13:19;;;;;;;27.40;5.97;;;9.10;99.90;;;;;;5068656;28;20040;-77
2021/12/30 07:15:45;;;;;;;26.75;5.35;;;9.10;99.90;;;;;;5069363;28;20137;-78
2021/12/30 07:18:10;;;;;;;21.30;5.30;;;9.00;99.90;;;;;;5084373;28;20047;-78
2021/12/30 07:20:36;;;;;;;22.38;5.22;;;9.00;99.90;;;;;;5083172;28;20047;-78
2021/12/30 07:23:02;;;;;;;24.35;5.05;;;9.10;99.90;;;;;;5084752;28;20071;-79
2021/12/30 07:25:27;;;;;;;21.77;5.07;;;9.10;99.90;;;;;;5053205;28;20127;-78
2021/12/30 07:27:54;;;;;;;22.15;5.30;;;9.10;99.90;;;;;;5054255;28;20060;-78
2021/12/30 07:30:23;;;;;;;25.63;6.10;;;9.10;99.90;;;;;;5066586;28;20051;-78
2021/12/30 07:32:49;;;;;;;23.10;6.05;;;9.00;99.90;;;;;;5066839;28;20132;-79
2021/12/30 07:35:17;;;;;;;23.70;5.70;;;9.00;99.90;;;;;;5062354;28;20051;-78
2021/12/30 07:37:43;;;;;;;33.42;6.72;;;9.00;99.90;;;;;;5085671;28;20396;-80
2021/12/30 07:40:09;;;;;;;30.75;6.53;;;9.00;99.90;;;;;;5067223;28;20038;-78
2021/12/30 07:42:35;;;;;;;24.90;6.22;;;9.00;99.90;;;;;;5066276;28;20358;-80
2021/12/30 07:45:03;;;;;;;29.40;6.10;;;9.00;99.90;;;;;;5052215;28;20051;-80
2021/12/30 07:47:28;;;;;;;29.98;6.20;;;9.00;99.90;;;;;;5083104;28;20043;-80
2021/12/30 07:49:54;;;;;;;27.35;6.88;;;9.00;99.90;;;;;;5052406;28;20050;-80
2021/12/30 07:52:20;;;;;;;32.00;6.85;;;9.00;99.90;;;;;;5068942;28;20040;-80
2021/12/30 07:54:46;;;;;;;25.75;6.10;;;9.10;99.90;;;;;;5046880;28;20052;-81
2021/12/30 07:57:21;;;;;;;38.67;8.25;;;9.10;99.90;;;;;;5073139;28;20043;-78
2021/12/30 07:59:51;;;;;;;32.72;6.63;;;9.10;99.90;;;;;;5089630;28;20139;-79
2021/12/30 08:02:18;;;;;;;27.70;6.28;;;9.10;99.90;;;;;;5068105;28;20056;-79
2021/12/30 08:04:44;;;;;;;29.73;5.72;;;9.10;99.90;;;;;;5066566;28;20055;-79
2021/12/30 08:07:10;;;;;;;24.83;5.72;;;9.10;99.90;;;;;;5068957;28;20062;-78
2021/12/30 08:09:35;;;;;;;31.88;5.82;;;9.10;99.90;;;;;;5038035;28;20484;-78
2021/12/30 08:12:02;;;;;;;32.17;5.95;;;9.10;99.90;;;;;;5050924;28;20408;-79
2021/12/30 08:14:28;;;;;;;36.75;6.07;;;9.10;99.90;;;;;;5067635;28;20055;-78
2021/12/30 08:16:54;;;;;;;36.70;6.15;;;9.10;99.90;;;;;;5069712;28;20393;-79
2021/12/30 08:19:20;;;;;;;32.50;5.75;;;9.20;99.90;;;;;;5070132;28;20043;-78
2021/12/30 08:21:46;;;;;;;37.65;6.35;;;9.10;99.90;;;;;;5087325;28;20048;-79
2021/12/30 08:24:12;;;;;;;30.40;5.75;;;9.20;99.90;;;;;;5091585;28;20055;-78
2021/12/30 08:26:39;;;;;;;31.55;5.13;;;8.50;99.90;;;;;;5092673;28;20077;-78
2021/12/30 08:29:05;;;;;;;35.97;6.53;;;9.20;99.90;;;;;;5043340;28;20051;-78
2021/12/30 08:31:35;;;;;;;28.25;4.97;;;9.20;99.90;;;;;;5074176;28;20040;-78
2021/12/30 08:34:03;;;;;;;33.95;5.85;;;9.20;99.90;;;;;;5083452;28;20100;-80
2021/12/30 08:36:28;;;;;;;31.48;5.90;;;9.20;99.90;;;;;;5088050;28;20044;-79
2021/12/30 08:38:54;;;;;;;28.90;5.45;;;9.20;99.90;;;;;;5073884;28;20036;-80
2021/12/30 08:41:20;;;;;;;30.17;5.72;;;9.20;99.90;;;;;;5073701;28;20062;-80
2021/12/30 08:43:46;;;;;;;31.00;4.93;;;9.20;99.90;;;;;;5075339;28;20058;-80
2021/12/30 08:46:12;;;;;;;27.10;5.47;;;9.20;99.90;;;;;;5074952;28;20067;-80
2021/12/30 08:48:38;;;;;;;32.08;5.20;;;9.20;99.90;;;;;;5059686;28;20043;-80
2021/12/30 08:51:04;;;;;;;28.25;5.03;;;9.20;99.90;;;;;;5059547;28;20058;-81
2021/12/30 08:53:30;;;;;;;45.60;6.18;;;9.20;99.90;;;;;;5059089;28;20044;-81
2021/12/30 08:55:56;;;;;;;29.80;5.38;;;9.20;99.90;;;;;;5067528;28;20035;-80
2021/12/30 08:58:22;;;;;;;26.95;5.85;;;9.20;99.90;;;;;;5060121;28;20192;-80
2021/12/30 09:00:48;;;;;;;26.38;5.40;;;9.20;99.90;;;;;;5074755;28;20039;-81
2021/12/30 09:03:17;;;;;;;29.73;5.28;;;9.10;99.90;;;;;;5075440;28;20086;-81
2021/12/30 09:05:43;;;;;;;27.30;4.60;;;9.10;99.90;;;;;;5093451;28;20413;-81
2021/12/30 09:08:09;;;;;;;36.25;5.53;;;9.10;99.90;;;;;;5076176;28;20439;-81
2021/12/30 09:10:45;;;;;;;32.67;5.63;;;9.20;99.90;;;;;;5076331;28;20052;-79
2021/12/30 09:13:11;;;;;;;24.77;5.15;;;9.20;99.90;;;;;;5076687;28;20130;-79
2021/12/30 09:15:37;;;;;;;29.25;4.32;;;9.20;99.90;;;;;;5058660;28;20071;-79
2021/12/30 09:18:05;;;;;;;26.70;5.00;;;9.20;99.90;;;;;;5057445;28;20085;-80
2021/12/30 09:20:31;;;;;;;28.05;5.57;;;9.20;99.90;;;;;;5075226;28;20047;-79
2021/12/30 09:22:57;;;;;;;35.53;5.45;;;9.20;99.90;;;;;;5059027;28;20051;-79
2021/12/30 09:25:24;;;;;;;31.17;5.32;;;9.20;99.90;;;;;;5075503;28;20071;-79
2021/12/30 09:27:55;;;;;;;25.95;5.25;;;9.20;99.90;;;;;;5059192;28;20872;-79
2021/12/30 09:30:21;;;;;;;31.15;5.03;;;9.20;99.90;;;;;;5073434;28;20643;-79
2021/12/30 09:32:48;;;;;;;34.35;5.43;;;9.20;99.90;;;;;;5073659;28;20051;-79
2021/12/30 09:35:15;;;;;;;26.98;5.25;;;9.30;99.90;;;;;;5058029;28;20106;-79
2021/12/30 09:37:41;;;;;;;30.08;5.50;;;9.30;99.90;;;;;;5075428;28;20047;-79
2021/12/30 09:40:10;;;;;;;37.53;5.70;;;9.30;99.90;;;;;;5075166;28;20122;-79
2021/12/30 09:42:38;;;;;;;38.38;5.55;;;9.30;99.90;;;;;;5091688;28;20122;-79
2021/12/30 09:45:05;;;;;;;36.60;6.30;;;9.40;99.90;;;;;;5091395;28;20396;-79
2021/12/30 09:47:32;;;;;;;27.35;6.00;;;9.40;99.90;;;;;;5091448;28;20443;-79
2021/12/30 09:49:58;;;;;;;36.78;6.22;;;9.40;99.90;;;;;;5073568;28;20564;-80
2021/12/30 09:52:24;;;;;;;31.88;5.18;;;9.40;99.90;;;;;;5073841;28;20047;-78
2021/12/30 09:54:49;;;;;;;26.33;5.28;;;9.50;99.90;;;;;;5075060;28;20043;-79
2021/12/30 09:57:15;;;;;;;27.63;6.07;;;9.50;99.90;;;;;;5091590;28;20511;-78
2021/12/30 09:59:41;;;;;;;35.63;5.88;;;9.50;99.90;;;;;;5074924;28;20039;-79
2021/12/30 10:02:06;;;;;;;31.58;5.40;;;9.50;99.90;;;;;;5056672;28;20138;-80
2021/12/30 10:04:34;;;;;;;29.30;5.63;;;9.50;99.90;;;;;;5086973;28;20058;-79
2021/12/30 10:07:01;;;;;;;26.13;5.20;;;9.50;99.90;;;;;;5107992;28;20108;-79
2021/12/30 10:09:45;;;;;;;33.10;6.70;;;9.50;99.90;;;;;;5106842;28;20492;-79
2021/12/30 10:12:12;;;;;;;34.25;5.88;;;10.00;99.90;;;;;;5089191;28;20097;-79
2021/12/30 10:14:39;;;;;;;26.73;4.97;;;9.50;99.90;;;;;;5074201;28;20051;-79
2021/12/30 10:17:26;;;;;;;33.10;5.93;;;9.50;99.90;;;;;;5091054;28;20043;-80
2021/12/30 10:19:54;;;;;;;37.92;6.20;;;9.50;99.90;;;;;;5075044;28;20051;-79
2021/12/30 10:22:23;;;;;;;37.95;6.85;;;9.50;99.90;;;;;;5082138;28;20057;-79
2021/12/30 10:24:50;;;;;;;29.67;7.03;;;9.60;99.90;;;;;;5075362;28;20097;-79
2021/12/30 10:27:27;;;;;;;40.22;7.68;;;9.60;99.90;;;;;;5064836;28;20824;-79
2021/12/30 10:29:54;;;;;;;38.45;7.53;;;9.60;99.90;;;;;;5074461;28;20043;-78
2021/12/30 10:32:28;;;;;;;39.22;7.65;;;9.70;99.90;;;;;;5068625;28;20051;-79
2021/12/30 10:35:14;;;;;;;43.55;8.48;;;9.70;99.90;;;;;;5090907;28;20405;-79
2021/12/30 10:37:45;;;;;;;49.80;8.30;;;9.70;99.90;;;;;;5081919;28;20048;-79
2021/12/30 10:40:27;;;;;;;47.33;9.57;;;9.70;99.90;;;;;;5073741;28;20052;-80
2021/12/30 10:43:12;;;;;;;41.85;7.72;;;9.70;99.90;;;;;;5073005;28;20044;-79
2021/12/30 10:45:38;;;;;;;47.85;8.63;;;9.70;99.90;;;;;;5088959;28;20059;-78
2021/12/30 10:48:08;;;;;;;40.00;7.65;;;9.70;99.90;;;;;;5088860;28;20052;-79
2021/12/30 10:50:34;;;;;;;41.33;7.55;;;9.70;99.90;;;;;;5071726;28;20055;-80
2021/12/30 10:53:00;;;;;;;47.88;8.98;;;9.70;99.90;;;;;;5072279;28;20047;-80
2021/12/30 10:55:25;;;;;;;40.15;8.60;;;9.70;99.90;;;;;;5055936;28;20077;-81
2021/12/30 10:57:52;;;;;;;51.97;8.05;;;9.70;99.90;;;;;;5057135;28;20044;-77
2021/12/30 11:00:33;;;;;;;46.58;8.43;;;9.70;99.90;;;;;;5089623;28;20047;-77
2021/12/30 11:03:26;;;;;;;47.78;9.38;;;9.70;99.90;;;;;;5089797;28;20043;-81
2021/12/30 11:06:17;;;;;;;49.15;9.13;;;9.60;99.90;;;;;;5074245;28;20058;-82
2021/12/30 11:08:43;;;;;;;51.33;9.02;;;9.80;99.90;;;;;;5090512;28;20134;-82
2021/12/30 11:11:27;;;;;;;49.35;8.50;;;9.60;99.90;;;;;;5073396;28;20473;-82
2021/12/30 11:14:18;;;;;;;49.60;9.25;;;9.60;99.90;;;;;;5073226;28;20058;-78
2021/12/30 11:17:14;;;;;;;46.85;8.55;;;9.60;99.90;;;;;;5081862;28;20070;-80
2021/12/30 11:19:43;;;;;;;36.58;8.85;;;9.60;99.90;;;;;;5077369;28;20054;-83
2021/12/30 11:22:15;;;;;;;43.88;9.13;;;9.70;99.90;;;;;;5083057;28;20553;-77
2021/12/30 11:24:43;;;;;;;52.28;8.25;;;9.70;99.90;;;;;;5088345;28;20489;-77
2021/12/30 11:27:10;;;;;;;36.00;8.07;;;9.70;99.90;;;;;;5072438;28;20392;-77
2021/12/30 11:29:39;;;;;;;43.92;8.43;;;9.70;99.90;;;;;;5087124;28;20044;-81
2021/12/30 11:32:07;;;;;;;48.47;8.80;;;9.70;99.90;;;;;;5068349;28;20062;-81
2021/12/30 11:34:33;;;;;;;41.38;8.70;;;9.70;99.90;;;;;;5072495;28;20047;-81
2021/12/30 11:36:59;;;;;;;47.10;8.43;;;9.70;99.90;;;;;;5055934;28;20084;-81
2021/12/30 11:39:26;;;;;;;47.60;9.88;;;9.70;99.90;;;;;;5085940;28;20110;-81
2021/12/30 11:42:08;;;;;;;46.78;8.93;;;9.70;99.90;;;;;;5069885;28;20047;-81
2021/12/30 11:44:38;;;;;;;42.85;8.95;;;9.70;99.90;;;;;;5070924;28;20051;-80
2021/12/30 11:47:06;;;;;;;39.90;7.95;;;9.60;99.90;;;;;;5086444;28;20488;-84
2021/12/30 11:50:15;;;;;;;45.83;7.97;;;9.70;99.90;;;;;;5087009;28;20051;-81
2021/12/30 11:52:51;;;;;;;42.42;8.23;;;9.80;99.90;;;;;;5002450;28;20068;-80
2021/12/30 11:55:44;;;;;;;47.65;8.18;;;9.80;99.90;;;;;;4983795;28;20042;-81
2021/12/30 11:58:49;;;;;;;29.92;6.93;;;9.80;99.90;;;;;;5054849;28;20130;-79
2021/12/30 12:01:14;;;;;;;43.78;8.15;;;10.00;99.90;;;;;;5084330;28;20071;-79
2021/12/30 12:03:45;;;;;;;40.47;7.75;;;9.80;99.90;;;;;;5071409;28;20406;-79
2021/12/30 12:06:27;;;;;;;34.67;7.15;;;9.80;99.90;;;;;;5082991;28;20105;-79
2021/12/30 12:09:23;;;;;;;39.45;8.25;;;9.80;99.90;;;;;;5106397;28;20052;-79
2021/12/30 12:11:54;;;;;;;32.05;7.68;;;9.80;99.90;;;;;;5046749;28;20101;-79
2021/12/30 12:14:28;;;;;;;32.30;6.78;;;9.80;99.90;;;;;;5073142;28;20086;-80
2021/12/30 12:16:59;;;;;;;38.70;6.30;;;9.80;99.90;;;;;;5090000;28;20055;-78
2021/12/30 12:19:36;;;;;;;36.50;6.65;;;9.90;99.90;;;;;;5071721;28;20492;-79
2021/12/30 12:22:09;;;;;;;25.85;5.80;;;9.90;99.90;;;;;;5069207;28;20077;-78
2021/12/30 12:24:37;;;;;;;39.95;7.28;;;9.80;99.90;;;;;;5072852;28;20039;-79
2021/12/30 12:27:10;;;;;;;32.78;6.55;;;9.80;99.90;;;;;;5082362;28;20044;-79
2021/12/30 12:29:42;;;;;;;32.22;6.30;;;9.80;99.90;;;;;;5089894;28;20054;-78
2021/12/30 12:32:16;;;;;;;32.05;6.75;;;9.80;99.90;;;;;;5086884;28;20401;-79
2021/12/30 12:34:59;;;;;;;35.15;7.18;;;9.80;99.90;;;;;;5073517;28;20052;-82
2021/12/30 12:37:32;;;;;;;33.10;6.18;;;9.80;99.90;;;;;;5089584;28;20179;-79
2021/12/30 12:40:06;;;;;;;35.80;6.97;;;9.80;99.90;;;;;;5071320;28;20047;-81
2021/12/30 12:42:53;;;;;;;37.33;7.68;;;9.80;99.90;;;;;;5089643;28;20062;-80
2021/12/30 12:45:51;;;;;;;33.97;6.82;;;9.80;99.90;;;;;;5071148;28;20043;-80
2021/12/30 12:48:17;;;;;;;30.80;6.18;;;9.80;99.90;;;;;;5072316;28;20055;-79
2021/12/30 12:50:53;;;;;;;34.05;6.05;;;9.70;99.90;;;;;;5073298;28;20405;-80